Time;durP1;ratioP1;P1;durP2;ratioP2;P2;SDS_P1;SDS_P2;PMS_P1;PMS_P2;Temp;Humidity;BMP_temperature;BMP_pressure;BME280_temperature;BME280_humidity;BME280_pressure;Samples;Min_cycle;Max_cycle;Signal;HPM_P1;HPM_P2
2021/01/11 00:01:41;;;;;;;42.00;28.88;;;77.30;2201.60;;;;;;6286334;22;20007;-78
2021/01/11 00:04:07;;;;;;;51.88;37.00;;;77.30;2201.60;;;;;;6258964;22;20003;-86
2021/01/11 00:06:39;;;;;;;34.88;23.35;;;77.30;2201.60;;;;;;6286196;22;20078;-81
2021/01/11 00:09:05;;;;;;;34.20;23.20;;;77.30;2176.00;;;;;;6285926;22;20008;-78
2021/01/11 00:11:32;;;;;;;41.20;29.02;;;77.30;2201.60;;;;;;6285117;22;20065;-85
2021/01/11 00:13:59;;;;;;;38.58;25.65;;;77.30;2176.00;;;;;;6286149;22;20008;-87
2021/01/11 00:16:25;;;;;;;45.92;29.13;;;77.30;2176.00;;;;;;6286170;22;19996;-86
2021/01/11 00:18:51;;;;;;;48.15;30.77;;;77.30;2176.00;;;;;;6286049;22;20026;-76
2021/01/11 00:21:17;;;;;;;39.47;24.98;;;77.30;2176.00;;;;;;6285994;22;20000;-76
2021/01/11 00:23:43;;;;;;;36.78;25.60;;;77.40;2176.00;;;;;;6285816;22;20002;-81
2021/01/11 00:26:10;;;;;;;32.65;21.10;;;77.30;2176.00;;;;;;6258409;22;19996;-78
2021/01/11 00:28:36;;;;;;;32.83;21.33;;;77.40;2176.00;;;;;;6285533;22;20426;-78
2021/01/11 00:31:01;;;;;;;35.47;20.77;;;77.30;2150.40;;;;;;6285342;22;20006;-78
2021/01/11 00:33:27;;;;;;;23.52;14.38;;;77.30;2150.40;;;;;;6257994;22;20418;-85
2021/01/11 00:35:53;;;;;;;29.73;19.33;;;77.30;2176.00;;;;;;6285513;22;20010;-77
2021/01/11 00:38:18;;;;;;;24.38;17.42;;;77.30;2176.00;;;;;;6285455;22;20008;-77
2021/01/11 00:40:44;;;;;;;28.33;17.83;;;77.40;2176.00;;;;;;6285366;22;20467;-83
2021/01/11 00:43:10;;;;;;;22.08;15.55;;;77.40;2176.00;;;;;;6285432;22;20007;-77
2021/01/11 00:45:36;;;;;;;34.88;23.13;;;77.40;2176.00;;;;;;6285184;22;20023;-76
2021/01/11 00:48:02;;;;;;;38.70;25.45;;;77.40;2176.00;;;;;;6285195;22;20500;-77
2021/01/11 00:50:27;;;;;;;20.55;15.15;;;77.40;2150.40;;;;;;6285287;22;19999;-77
2021/01/11 00:52:53;;;;;;;28.92;16.15;;;77.40;2150.40;;;;;;6258113;22;20004;-77
2021/01/11 00:55:19;;;;;;;29.67;18.42;;;77.40;2150.40;;;;;;6285198;22;20082;-76
2021/01/11 00:57:44;;;;;;;28.95;20.70;;;77.40;2176.00;;;;;;6284987;22;20023;-84
2021/01/11 01:00:11;;;;;;;37.55;25.38;;;77.40;2150.40;;;;;;6278117;22;20372;-77
2021/01/11 01:02:38;;;;;;;49.20;29.85;;;77.50;2150.40;;;;;;6277024;22;19999;-77
2021/01/11 01:05:09;;;;;;;30.98;20.88;;;77.60;2150.40;;;;;;6278355;22;20437;-77
2021/01/11 01:07:37;;;;;;;36.00;24.00;;;77.50;2150.40;;;;;;6278233;22;20003;-78
2021/01/11 01:10:04;;;;;;;28.83;19.15;;;77.50;2150.40;;;;;;6278044;22;19996;-82
2021/01/11 01:12:30;;;;;;;24.55;16.35;;;77.40;2150.40;;;;;;6277903;22;20012;-80
2021/01/11 01:14:56;;;;;;;24.23;16.02;;;77.50;2124.80;;;;;;6250945;22;20357;-77
2021/01/11 01:17:22;;;;;;;19.75;12.98;;;77.40;2150.40;;;;;;6275843;22;20035;-75
2021/01/11 01:19:48;;;;;;;21.63;14.70;;;77.40;2124.80;;;;;;6277805;22;20066;-75
2021/01/11 01:22:13;;;;;;;29.73;19.48;;;77.50;2124.80;;;;;;6277794;22;20000;-74
2021/01/11 01:24:39;;;;;;;27.05;17.80;;;77.50;2150.40;;;;;;6250115;22;20335;-74
2021/01/11 01:27:05;;;;;;;30.13;18.63;;;77.50;2124.80;;;;;;6277752;22;20082;-75
2021/01/11 01:29:30;;;;;;;30.02;18.52;;;77.40;2150.40;;;;;;6277813;22;20035;-75
2021/01/11 01:31:56;;;;;;;26.45;19.00;;;77.50;2124.80;;;;;;6277957;22;20000;-74
2021/01/11 01:34:22;;;;;;;15.45;11.02;;;77.50;2124.80;;;;;;6277762;22;20073;-74
2021/01/11 01:36:47;;;;;;;28.50;18.00;;;77.40;2124.80;;;;;;6277807;22;20010;-75
2021/01/11 01:39:13;;;;;;;35.70;22.75;;;77.50;2099.20;;;;;;6277858;22;20000;-74
2021/01/11 01:41:39;;;;;;;55.47;34.95;;;77.40;2124.80;;;;;;6277639;22;20034;-74
2021/01/11 01:44:05;;;;;;;38.45;22.60;;;77.50;2124.80;;;;;;6277757;22;20007;-74
2021/01/11 01:46:31;;;;;;;24.95;16.55;;;77.50;2124.80;;;;;;6277788;22;20000;-74
2021/01/11 01:49:01;;;;;;;23.88;17.23;;;77.40;2124.80;;;;;;6277746;22;19996;-76
2021/01/11 01:51:27;;;;;;;37.60;23.60;;;77.40;2124.80;;;;;;6278087;22;20029;-75
2021/01/11 01:53:54;;;;;;;29.38;21.58;;;77.50;2124.80;;;;;;6277713;22;20004;-74
2021/01/11 01:56:20;;;;;;;26.42;19.77;;;77.40;2124.80;;;;;;6277487;22;20003;-78
2021/01/11 01:58:47;;;;;;;22.90;15.65;;;77.40;2124.80;;;;;;6277518;22;20020;-75
2021/01/11 02:01:13;;;;;;;24.08;16.63;;;77.50;2124.80;;;;;;6277757;22;19996;-85
2021/01/11 02:03:39;;;;;;;25.08;16.75;;;77.50;2099.20;;;;;;6278088;22;20073;-77
2021/01/11 02:06:05;;;;;;;26.40;17.92;;;77.50;2099.20;;;;;;6277688;22;20422;-78
2021/01/11 02:08:39;;;;;;;33.28;21.52;;;77.50;2099.20;;;;;;6277849;22;20046;-76
2021/01/11 02:11:29;;;;;;;28.13;20.85;;;77.50;2099.20;;;;;;6250025;22;20006;-85
2021/01/11 02:14:22;;;;;;;25.73;16.25;;;77.40;2099.20;;;;;;6124934;23;20002;-77
2021/01/11 02:17:05;;;;;;;19.42;13.77;;;77.40;2099.20;;;;;;6124973;23;20017;-75
2021/01/11 02:20:03;;;;;;;19.60;13.95;;;77.40;2099.20;;;;;;6124893;23;20043;-76
2021/01/11 02:22:44;;;;;;;19.98;13.73;;;77.40;2099.20;;;;;;6124874;23;20013;-80
2021/01/11 02:25:22;;;;;;;18.92;14.07;;;77.40;2099.20;;;;;;6124677;23;20021;-75
2021/01/11 02:27:58;;;;;;;24.23;17.08;;;77.40;2099.20;;;;;;6124994;23;20006;-75
2021/01/11 02:30:45;;;;;;;22.77;16.05;;;77.40;2099.20;;;;;;6124575;23;20006;-76
2021/01/11 02:33:16;;;;;;;20.70;14.18;;;77.40;2099.20;;;;;;6124625;23;20005;-76
2021/01/11 02:35:48;;;;;;;20.33;14.55;;;77.40;2124.80;;;;;;6124698;23;20010;-74
2021/01/11 02:38:19;;;;;;;17.58;14.52;;;77.40;2099.20;;;;;;6124535;23;20041;-75
2021/01/11 02:40:45;;;;;;;16.48;12.43;;;77.40;2099.20;;;;;;6124749;23;20055;-75
2021/01/11 02:43:11;;;;;;;19.70;13.93;;;77.40;2099.20;;;;;;6100065;23;20025;-75
2021/01/11 02:45:37;;;;;;;24.90;17.25;;;77.40;2099.20;;;;;;6124597;23;20044;-74
2021/01/11 02:48:14;;;;;;;20.88;16.42;;;77.40;2099.20;;;;;;6124861;23;20002;-76
2021/01/11 02:51:14;;;;;;;22.48;15.25;;;77.40;2099.20;;;;;;6187014;22;20049;-78
2021/01/11 02:53:53;;;;;;;17.95;13.25;;;77.40;2099.20;;;;;;6271408;22;20000;-79
2021/01/11 02:56:55;;;;;;;17.92;13.02;;;77.40;2099.20;;;;;;6280332;22;19995;-89
2021/01/11 02:59:44;;;;;;;17.35;13.88;;;77.40;2099.20;;;;;;6279941;22;20012;-75
2021/01/11 03:02:15;;;;;;;22.10;13.98;;;77.40;2073.60;;;;;;6282187;22;20000;-87
2021/01/11 03:04:42;;;;;;;29.23;18.48;;;77.40;2099.20;;;;;;6279705;22;20066;-74
2021/01/11 03:07:09;;;;;;;42.40;24.40;;;77.40;2099.20;;;;;;6277112;22;20449;-76
2021/01/11 03:09:40;;;;;;;46.88;26.50;;;77.40;2099.20;;;;;;6249915;22;20028;-75
2021/01/11 03:12:06;;;;;;;43.05;25.42;;;77.40;2099.20;;;;;;6249928;22;20410;-75
2021/01/11 03:14:32;;;;;;;38.05;24.08;;;77.40;2099.20;;;;;;6248116;22;20381;-75
2021/01/11 03:16:58;;;;;;;37.08;21.92;;;77.40;2099.20;;;;;;6277113;22;20084;-77
2021/01/11 03:19:24;;;;;;;30.02;19.98;;;77.40;2099.20;;;;;;6277062;22;20010;-75
2021/01/11 03:21:50;;;;;;;21.20;15.05;;;77.40;2099.20;;;;;;6276853;22;20035;-75
2021/01/11 03:24:18;;;;;;;31.92;21.88;;;77.40;2099.20;;;;;;6276894;22;20000;-76
2021/01/11 03:26:44;;;;;;;31.83;20.67;;;77.40;2099.20;;;;;;6277042;22;20027;-85
2021/01/11 03:29:11;;;;;;;27.13;18.33;;;77.40;2099.20;;;;;;6276755;22;20077;-76
2021/01/11 03:31:38;;;;;;;30.48;20.35;;;77.40;2099.20;;;;;;6277026;22;20008;-77
2021/01/11 03:34:04;;;;;;;31.05;17.80;;;77.40;2099.20;;;;;;6276748;22;20414;-78
2021/01/11 03:36:30;;;;;;;74.57;38.08;;;77.40;2099.20;;;;;;6276921;22;20145;-74
2021/01/11 03:38:56;;;;;;;69.45;33.92;;;77.40;2099.20;;;;;;6276858;22;20433;-75
2021/01/11 03:41:22;;;;;;;118.30;57.53;;;77.40;2073.60;;;;;;6276824;22;20343;-75
2021/01/11 03:43:47;;;;;;;92.43;44.70;;;77.40;2073.60;;;;;;6276942;22;20003;-75
2021/01/11 03:46:16;;;;;;;66.53;36.47;;;77.40;2073.60;;;;;;6277073;22;19996;-75
2021/01/11 03:48:43;;;;;;;80.78;47.45;;;77.30;2073.60;;;;;;6276698;22;20442;-77
2021/01/11 03:51:09;;;;;;;66.43;38.55;;;77.40;2099.20;;;;;;6276884;22;20431;-75
2021/01/11 03:53:35;;;;;;;54.80;33.30;;;77.40;2099.20;;;;;;6276807;22;20004;-76
2021/01/11 03:56:07;;;;;;;49.38;29.92;;;77.40;2073.60;;;;;;6276735;22;20445;-75
2021/01/11 03:58:33;;;;;;;32.45;19.52;;;77.40;2073.60;;;;;;6276731;22;20016;-75
2021/01/11 04:00:59;;;;;;;21.98;15.73;;;77.30;2073.60;;;;;;6276808;22;20449;-88
2021/01/11 04:03:28;;;;;;;20.60;14.05;;;77.40;2073.60;;;;;;6276771;22;20030;-78
2021/01/11 04:05:55;;;;;;;19.20;14.02;;;77.30;2073.60;;;;;;6276914;22;20027;-76
2021/01/11 04:08:21;;;;;;;25.25;15.63;;;77.30;2073.60;;;;;;6277107;22;20023;-83
2021/01/11 04:10:47;;;;;;;21.42;14.90;;;77.30;2073.60;;;;;;6276997;22;19996;-75
2021/01/11 04:13:13;;;;;;;20.00;14.23;;;77.30;2073.60;;;;;;6276958;22;20456;-85
2021/01/11 04:15:39;;;;;;;23.90;16.15;;;77.30;2073.60;;;;;;6276724;22;19996;-76
2021/01/11 04:18:05;;;;;;;19.17;13.02;;;77.30;2073.60;;;;;;6249543;22;20341;-76
2021/01/11 04:20:30;;;;;;;16.92;12.18;;;77.30;2073.60;;;;;;6276441;22;20003;-77
2021/01/11 04:22:57;;;;;;;15.85;12.38;;;77.30;2048.00;;;;;;6276462;22;20003;-76
2021/01/11 04:25:24;;;;;;;16.83;12.77;;;77.30;2048.00;;;;;;6276725;22;20000;-75
2021/01/11 04:27:51;;;;;;;19.77;14.07;;;77.30;2048.00;;;;;;6276498;22;20393;-79
2021/01/11 04:30:18;;;;;;;17.17;13.00;;;77.20;2073.60;;;;;;6276424;22;20071;-76
2021/01/11 04:32:44;;;;;;;16.98;13.23;;;77.20;2073.60;;;;;;6276968;22;20027;-91
2021/01/11 04:35:11;;;;;;;16.75;12.63;;;77.20;2073.60;;;;;;6278293;22;20385;-78
2021/01/11 04:37:37;;;;;;;28.35;20.13;;;77.30;2073.60;;;;;;6278359;22;20050;-77
2021/01/11 04:40:08;;;;;;;43.92;28.02;;;77.30;2073.60;;;;;;6278944;22;20004;-92
2021/01/11 04:43:01;;;;;;;41.08;25.58;;;77.20;2073.60;;;;;;6278523;22;20458;-76
2021/01/11 04:45:27;;;;;;;28.40;19.13;;;77.30;2073.60;;;;;;6278381;22;20004;-83
2021/01/11 04:47:59;;;;;;;30.52;19.58;;;77.30;2073.60;;;;;;6278633;22;20473;-78
2021/01/11 04:50:26;;;;;;;28.73;18.52;;;77.30;2048.00;;;;;;6251379;22;20003;-91
2021/01/11 04:52:52;;;;;;;51.53;32.33;;;77.30;2073.60;;;;;;6278274;22;19996;-75
2021/01/11 04:55:20;;;;;;;40.85;26.30;;;77.30;2073.60;;;;;;6278599;22;20010;-73
2021/01/11 04:58:07;;;;;;;34.92;23.77;;;77.30;2073.60;;;;;;6278282;22;20022;-83
2021/01/11 05:00:34;;;;;;;33.92;22.70;;;77.30;2073.60;;;;;;6278308;22;19999;-73
2021/01/11 05:03:04;;;;;;;46.13;28.65;;;77.30;2073.60;;;;;;6278476;22;20101;-83
2021/01/11 05:05:32;;;;;;;33.03;23.40;;;77.10;2073.60;;;;;;6278076;22;20011;-74
2021/01/11 05:07:58;;;;;;;28.98;22.00;;;77.10;2073.60;;;;;;6278279;22;20000;-83
2021/01/11 05:10:30;;;;;;;29.42;19.20;;;77.10;2073.60;;;;;;6278301;22;19992;-76
2021/01/11 05:12:57;;;;;;;36.22;23.13;;;77.10;2073.60;;;;;;6278019;22;20074;-80
2021/01/11 05:15:24;;;;;;;27.70;20.38;;;77.10;2073.60;;;;;;6278229;22;20091;-84
2021/01/11 05:17:49;;;;;;;35.83;22.27;;;77.20;2073.60;;;;;;6278278;22;20334;-79
2021/01/11 05:20:20;;;;;;;33.17;21.55;;;77.20;2073.60;;;;;;6277830;22;20000;-83
2021/01/11 05:22:49;;;;;;;31.88;21.00;;;77.20;2073.60;;;;;;6277953;22;20421;-75
2021/01/11 05:25:17;;;;;;;51.90;39.05;;;77.20;2048.00;;;;;;6278434;22;19999;-87
2021/01/11 05:27:44;;;;;;;46.67;32.55;;;77.20;2073.60;;;;;;6277772;22;20004;-75
2021/01/11 05:30:33;;;;;;;49.88;33.38;;;77.20;2073.60;;;;;;6278202;22;19999;-73
2021/01/11 05:32:59;;;;;;;77.82;45.97;;;77.20;2073.60;;;;;;6278208;22;20016;-77
2021/01/11 05:35:26;;;;;;;57.85;40.72;;;77.20;2073.60;;;;;;6278040;22;20057;-84
2021/01/11 05:37:54;;;;;;;52.95;35.33;;;77.20;2073.60;;;;;;6278092;22;20035;-74
2021/01/11 05:40:21;;;;;;;65.32;42.10;;;77.20;2073.60;;;;;;6277933;22;19996;-82
2021/01/11 05:42:53;;;;;;;57.47;38.65;;;77.20;2073.60;;;;;;6278207;22;20430;-87
2021/01/11 05:45:24;;;;;;;59.00;42.38;;;77.20;2073.60;;;;;;6277969;22;20011;-86
2021/01/11 05:47:59;;;;;;;44.92;33.33;;;77.20;2073.60;;;;;;6277998;22;20008;-85
2021/01/11 05:50:30;;;;;;;41.63;29.77;;;77.20;2073.60;;;;;;6278050;22;20049;-83
2021/01/11 05:52:56;;;;;;;39.53;28.65;;;77.20;2073.60;;;;;;6250945;22;20003;-76
2021/01/11 05:55:23;;;;;;;41.78;29.70;;;77.20;2073.60;;;;;;6277655;22;20062;-89
2021/01/11 05:57:58;;;;;;;44.53;30.77;;;77.20;2073.60;;;;;;6250493;22;20454;-84
2021/01/11 06:00:26;;;;;;;39.13;29.00;;;77.20;2073.60;;;;;;6250741;22;20086;-75
2021/01/11 06:02:53;;;;;;;42.13;30.60;;;77.20;2073.60;;;;;;6278179;22;20008;-75
2021/01/11 06:05:19;;;;;;;45.88;31.27;;;77.20;2073.60;;;;;;6278368;22;20007;-75
2021/01/11 06:07:46;;;;;;;55.65;37.55;;;77.30;2073.60;;;;;;6277879;22;20330;-89
2021/01/11 06:10:16;;;;;;;47.95;34.83;;;77.30;2048.00;;;;;;6277803;22;19996;-86
2021/01/11 06:12:44;;;;;;;43.45;29.05;;;77.30;2073.60;;;;;;6278111;22;20004;-75
2021/01/11 06:15:12;;;;;;;54.00;36.15;;;77.30;2048.00;;;;;;6277749;22;19996;-76
2021/01/11 06:17:39;;;;;;;74.57;48.78;;;77.30;2048.00;;;;;;6278002;22;20034;-84
2021/01/11 06:20:08;;;;;;;87.15;56.28;;;77.30;2022.40;;;;;;6277585;22;20002;-75
2021/01/11 06:22:45;;;;;;;78.72;50.40;;;77.30;2048.00;;;;;;6277514;22;20082;-74
2021/01/11 06:25:17;;;;;;;62.90;42.65;;;77.30;2048.00;;;;;;6278161;22;20449;-74
2021/01/11 06:28:02;;;;;;;109.90;78.80;;;77.30;2048.00;;;;;;6277674;22;20003;-75
2021/01/11 06:30:37;;;;;;;92.93;70.60;;;77.30;2022.40;;;;;;6278150;22;20496;-89
2021/01/11 06:33:06;;;;;;;75.10;49.67;;;77.30;2022.40;;;;;;6277668;22;20437;-86
2021/01/11 06:35:52;;;;;;;59.97;39.67;;;77.30;2022.40;;;;;;6277989;22;20359;-90
2021/01/11 06:38:26;;;;;;;54.13;35.65;;;77.30;2022.40;;;;;;6277340;22;20062;-76
2021/01/11 06:41:01;;;;;;;54.75;33.72;;;77.30;2022.40;;;;;;6277408;22;20030;-75
2021/01/11 06:43:29;;;;;;;61.88;44.55;;;77.30;2022.40;;;;;;6277392;22;20079;-74
2021/01/11 06:45:55;;;;;;;55.33;38.05;;;77.30;2022.40;;;;;;6250335;22;20011;-78
2021/01/11 06:48:22;;;;;;;68.53;46.92;;;77.30;1996.80;;;;;;6250414;22;20008;-74
2021/01/11 06:50:51;;;;;;;63.03;45.05;;;77.30;1996.80;;;;;;6277065;22;20078;-75
2021/01/11 06:53:29;;;;;;;76.72;50.33;;;77.30;1996.80;;;;;;6277618;22;20010;-84
2021/01/11 06:56:11;;;;;;;81.00;55.30;;;77.30;1996.80;;;;;;6277394;22;20007;-86
2021/01/11 06:58:39;;;;;;;67.55;42.70;;;77.30;1996.80;;;;;;6277069;22;20073;-75
2021/01/11 07:01:13;;;;;;;81.45;54.45;;;77.20;1996.80;;;;;;6277667;22;20007;-85
2021/01/11 07:03:50;;;;;;;86.97;55.47;;;77.20;1996.80;;;;;;6277296;22;20427;-89
2021/01/11 07:06:32;;;;;;;160.23;84.78;;;77.10;2022.40;;;;;;6277264;22;20031;-85
2021/01/11 07:09:15;;;;;;;176.93;103.35;;;77.20;2022.40;;;;;;6277338;22;20004;-75
2021/01/11 07:11:48;;;;;;;94.32;55.95;;;77.20;2022.40;;;;;;6277173;22;20010;-78
2021/01/11 07:14:16;;;;;;;74.47;49.22;;;77.30;2022.40;;;;;;6277237;22;19995;-79
2021/01/11 07:16:52;;;;;;;72.40;48.72;;;77.30;1996.80;;;;;;6277342;22;20049;-74
2021/01/11 07:19:43;;;;;;;79.03;53.17;;;77.30;1996.80;;;;;;6277223;22;19999;-75
2021/01/11 07:22:12;;;;;;;75.95;50.10;;;77.40;1996.80;;;;;;6249498;22;20004;-76
2021/01/11 07:24:42;;;;;;;83.75;59.33;;;77.40;1996.80;;;;;;6277566;22;20003;-87
2021/01/11 07:27:09;;;;;;;75.93;51.42;;;77.50;1996.80;;;;;;6277182;22;20426;-78
2021/01/11 07:29:35;;;;;;;53.22;36.25;;;77.60;1996.80;;;;;;6277378;22;20023;-82
2021/01/11 07:32:01;;;;;;;56.83;37.75;;;77.60;1996.80;;;;;;6277174;22;20457;-78
2021/01/11 07:34:27;;;;;;;60.78;41.92;;;77.60;1971.20;;;;;;6277082;22;19995;-83
2021/01/11 07:36:55;;;;;;;72.10;47.55;;;77.60;1996.80;;;;;;6277287;22;20482;-82
2021/01/11 07:39:27;;;;;;;74.25;52.00;;;77.70;1996.80;;;;;;6277892;22;20080;-77
2021/01/11 07:41:58;;;;;;;83.90;60.40;;;77.70;1996.80;;;;;;6277534;22;20000;-76
2021/01/11 07:44:25;;;;;;;96.47;66.60;;;102.40;1996.80;;;;;;6277351;22;20372;-78
2021/01/11 07:46:59;;;;;;;108.40;71.57;;;102.40;2022.40;;;;;;6277476;22;20074;-82
2021/01/11 07:49:27;;;;;;;94.85;67.53;;;102.40;2022.40;;;;;;6276863;22;20006;-90
2021/01/11 07:51:54;;;;;;;89.30;61.05;;;102.40;2022.40;;;;;;6277434;22;20014;-76
2021/01/11 07:54:21;;;;;;;127.22;81.13;;;102.40;2022.40;;;;;;6277242;22;20000;-74
2021/01/11 07:56:51;;;;;;;131.13;80.65;;;102.40;1996.80;;;;;;6249851;22;20008;-74
2021/01/11 07:59:17;;;;;;;122.97;75.82;;;102.40;1996.80;;;;;;6276781;22;20069;-75
2021/01/11 08:01:45;;;;;;;101.03;63.08;;;102.40;2022.40;;;;;;6276437;22;19992;-75
2021/01/11 08:04:13;;;;;;;111.97;69.28;;;102.50;2022.40;;;;;;6276718;22;20010;-81
2021/01/11 08:06:55;;;;;;;75.63;52.58;;;102.50;2022.40;;;;;;6276883;22;20079;-82
2021/01/11 08:09:29;;;;;;;67.85;46.50;;;102.50;1996.80;;;;;;6278077;22;20065;-74
2021/01/11 08:12:17;;;;;;;50.25;37.92;;;102.60;1971.20;;;;;;6278613;22;20411;-76
2021/01/11 08:14:48;;;;;;;56.38;43.67;;;102.60;1945.60;;;;;;6252346;22;20003;-75
2021/01/11 08:17:21;;;;;;;55.05;42.90;;;102.60;1945.60;;;;;;6279247;22;20326;-82
2021/01/11 08:19:58;;;;;;;46.75;34.58;;;102.60;1945.60;;;;;;6278748;22;20002;-89
2021/01/11 08:22:28;;;;;;;39.15;29.20;;;102.60;1920.00;;;;;;6279325;22;20007;-85
2021/01/11 08:24:58;;;;;;;45.42;33.40;;;102.70;1894.40;;;;;;6252004;22;20334;-87
2021/01/11 08:27:46;;;;;;;36.92;26.15;;;102.70;1894.40;;;;;;6250565;22;20383;-83
2021/01/11 08:30:15;;;;;;;91.90;61.45;;;102.70;1894.40;;;;;;6251823;22;20007;-86
2021/01/11 08:32:42;;;;;;;57.78;42.67;;;102.70;1894.40;;;;;;6251997;22;20031;-83
2021/01/11 08:35:14;;;;;;;85.93;56.97;;;102.70;1920.00;;;;;;6250710;22;20453;-82
2021/01/11 08:37:41;;;;;;;72.40;52.47;;;102.80;1894.40;;;;;;6251199;22;20007;-83
2021/01/11 08:40:19;;;;;;;72.82;49.95;;;102.80;1894.40;;;;;;6251142;22;20004;-81
2021/01/11 08:42:46;;;;;;;57.08;41.45;;;102.80;1894.40;;;;;;6251915;22;20402;-85
2021/01/11 08:45:33;;;;;;;46.88;35.22;;;102.80;1894.40;;;;;;6251774;22;20000;-85
2021/01/11 08:48:13;;;;;;;69.47;49.85;;;102.90;1868.80;;;;;;6251919;22;20008;-84
2021/01/11 08:50:55;;;;;;;57.00;41.88;;;102.80;1868.80;;;;;;6251875;22;20014;-87
2021/01/11 08:53:26;;;;;;;52.40;36.55;;;102.90;1868.80;;;;;;6251704;22;20008;-84
2021/01/11 08:56:12;;;;;;;66.22;47.70;;;102.90;1894.40;;;;;;6250590;22;20004;-85
2021/01/11 08:58:45;;;;;;;68.32;51.28;;;102.90;1894.40;;;;;;6250966;22;20015;-85
2021/01/11 09:01:12;;;;;;;;;;;102.90;1868.80;;;;;;6252670;22;20004;-85
2021/01/11 09:03:55;;;;;;;85.30;60.08;;;102.90;1894.40;;;;;;6251803;22;20298;-83
2021/01/11 09:06:51;;;;;;;75.88;49.47;;;102.90;1894.40;;;;;;6251534;22;20008;-86
2021/01/11 09:09:25;;;;;;;65.82;46.80;;;103.00;1894.40;;;;;;6252066;22;20007;-84
2021/01/11 09:12:08;;;;;;;68.15;48.55;;;102.90;1868.80;;;;;;6252305;22;20095;-84
2021/01/11 09:14:35;;;;;;;82.40;52.67;;;102.80;1868.80;;;;;;6251820;22;20004;-85
2021/01/11 09:17:05;;;;;;;57.78;40.35;;;102.80;1868.80;;;;;;6250671;22;20018;-86
2021/01/11 09:19:35;;;;;;;40.45;32.10;;;102.90;1894.40;;;;;;6251672;22;20011;-84
2021/01/11 09:22:05;;;;;;;42.05;32.65;;;103.00;1843.20;;;;;;6251354;22;20333;-88
2021/01/11 09:24:33;;;;;;;60.08;45.40;;;103.10;1843.20;;;;;;6252165;22;20318;-86
2021/01/11 09:27:08;;;;;;;69.68;53.13;;;103.10;1843.20;;;;;;6251439;22;20010;-83
2021/01/11 10:46:16;;;;;;;65.63;48.50;;;77.10;1945.60;;;;;;5111623;27;20354;-80
2021/01/11 10:48:44;;;;;;;79.28;63.42;;;103.10;1817.60;;;;;;5116508;28;20027;-83
2021/01/11 10:51:14;;;;;;;237.57;188.20;;;103.00;1843.20;;;;;;5096336;28;20107;-79
2021/01/11 10:53:41;;;;;;;310.10;232.73;;;102.90;1868.80;;;;;;5100876;28;20020;-78
2021/01/11 10:56:07;;;;;;;59.40;44.65;;;102.90;1868.80;;;;;;5095853;28;20508;-80
2021/01/11 10:58:34;;;;;;;57.35;41.33;;;102.90;1843.20;;;;;;5093706;28;20035;-83
2021/01/11 11:01:01;;;;;;;68.10;46.45;;;102.90;1817.60;;;;;;5093690;28;20411;-82
2021/01/11 11:03:27;;;;;;;58.67;42.50;;;103.00;1843.20;;;;;;5093349;28;20031;-78
2021/01/11 11:05:53;;;;;;;72.72;52.22;;;103.10;1868.80;;;;;;5092209;28;20024;-81
2021/01/11 11:08:19;;;;;;;40.33;30.00;;;103.20;1868.80;;;;;;5093123;28;20044;-81
2021/01/11 11:10:45;;;;;;;58.25;39.72;;;103.20;1817.60;;;;;;5093351;28;20051;-81
2021/01/11 11:13:11;;;;;;;176.50;128.63;;;103.20;1817.60;;;;;;5093087;28;20027;-80
2021/01/11 11:15:36;;;;;;;258.80;196.98;;;103.20;1817.60;;;;;;5093597;28;20043;-79
2021/01/11 11:18:02;;;;;;;75.43;56.13;;;103.20;1843.20;;;;;;5093767;28;20028;-84
2021/01/11 11:20:33;;;;;;;310.80;270.25;;;103.30;1843.20;;;;;;5094752;28;20028;-80
2021/01/11 11:22:59;;;;;;;49.47;38.47;;;103.30;1843.20;;;;;;5092773;28;20016;-80
2021/01/11 11:25:25;;;;;;;48.72;35.50;;;128.00;1843.20;;;;;;5093142;28;20024;-83
2021/01/11 11:27:51;;;;;;;48.75;33.47;;;128.00;1817.60;;;;;;5110368;28;20031;-81
2021/01/11 11:30:17;;;;;;;48.30;36.22;;;128.00;1817.60;;;;;;5092455;28;20077;-79
2021/01/11 11:32:47;;;;;;;56.15;40.92;;;128.10;1843.20;;;;;;5092142;28;20545;-80
2021/01/11 11:35:14;;;;;;;50.40;37.63;;;128.10;1843.20;;;;;;5092355;28;20039;-80
2021/01/11 11:37:41;;;;;;;48.40;35.25;;;128.10;1843.20;;;;;;5110491;28;20031;-79
2021/01/11 11:40:08;;;;;;;44.47;31.08;;;128.10;1817.60;;;;;;5092120;28;20159;-78
2021/01/11 11:42:41;;;;;;;35.60;27.05;;;128.10;1817.60;;;;;;5092104;28;20020;-80
2021/01/11 11:45:09;;;;;;;30.67;24.02;;;128.10;1843.20;;;;;;5084862;28;20044;-79
2021/01/11 11:47:37;;;;;;;40.95;30.35;;;128.10;1817.60;;;;;;5074515;28;20115;-83
2021/01/11 11:50:12;;;;;;;57.15;38.80;;;128.10;1817.60;;;;;;5071762;28;20024;-82
2021/01/11 11:52:37;;;;;;;46.60;33.40;;;128.10;1817.60;;;;;;5075087;28;20031;-79
2021/01/11 11:55:06;;;;;;;47.80;35.20;;;128.10;1817.60;;;;;;5073892;28;20041;-83
2021/01/11 11:57:32;;;;;;;46.42;33.83;;;128.10;1843.20;;;;;;5075377;28;20394;-82
2021/01/11 11:59:57;;;;;;;35.55;27.33;;;128.00;1843.20;;;;;;5075563;28;20379;-81
2021/01/11 12:02:23;;;;;;;48.80;36.63;;;128.00;1843.20;;;;;;5075932;28;20028;-81
2021/01/11 12:04:58;;;;;;;52.33;38.35;;;128.10;1843.20;;;;;;5075239;28;20025;-80
2021/01/11 12:07:26;;;;;;;42.80;33.50;;;128.00;1843.20;;;;;;5074740;28;20017;-84
2021/01/11 12:09:54;;;;;;;73.20;49.55;;;128.10;1843.20;;;;;;5074374;28;20036;-79
2021/01/11 12:12:20;;;;;;;50.10;36.53;;;128.10;1868.80;;;;;;5074663;28;20067;-77
2021/01/11 12:14:46;;;;;;;46.00;32.42;;;128.00;1868.80;;;;;;5074409;28;20509;-80
2021/01/11 12:17:12;;;;;;;48.22;36.17;;;103.30;1817.60;;;;;;5075268;28;20025;-82
2021/01/11 12:19:37;;;;;;;72.38;48.67;;;128.00;1868.80;;;;;;5074681;28;20032;-79
2021/01/11 12:22:15;;;;;;;43.72;34.15;;;103.30;1843.20;;;;;;5075136;28;20479;-80
2021/01/11 12:24:41;;;;;;;31.77;24.73;;;103.20;1843.20;;;;;;5074863;28;20021;-80
2021/01/11 12:27:07;;;;;;;39.53;29.10;;;103.20;1843.20;;;;;;5075142;28;20024;-80
2021/01/11 12:29:33;;;;;;;44.00;33.90;;;103.20;1843.20;;;;;;5074232;28;20040;-79
2021/01/11 12:32:03;;;;;;;58.33;40.33;;;103.10;1868.80;;;;;;5074753;28;20111;-80
2021/01/11 12:34:33;;;;;;;46.83;30.58;;;103.00;1868.80;;;;;;5074596;28;20490;-80
2021/01/11 12:36:59;;;;;;;52.00;36.15;;;103.10;1894.40;;;;;;5074615;28;20021;-80
2021/01/11 12:39:25;;;;;;;41.65;29.38;;;103.00;1894.40;;;;;;5074206;28;20486;-80
2021/01/11 12:41:51;;;;;;;82.28;55.00;;;103.10;1868.80;;;;;;5074810;28;20024;-80
2021/01/11 12:44:16;;;;;;;56.20;40.22;;;103.00;1894.40;;;;;;5075934;28;20078;-80
2021/01/11 12:46:42;;;;;;;55.22;39.30;;;102.90;1894.40;;;;;;5077743;28;20044;-80
2021/01/11 12:49:08;;;;;;;282.77;172.85;;;102.90;1894.40;;;;;;5077716;28;20113;-80
2021/01/11 12:51:34;;;;;;;125.45;88.57;;;102.90;1920.00;;;;;;5077643;28;20024;-80
2021/01/11 12:53:59;;;;;;;71.05;52.53;;;102.90;1920.00;;;;;;5077547;28;20077;-80
2021/01/11 12:56:30;;;;;;;74.60;49.55;;;102.70;1920.00;;;;;;5077582;28;20074;-80
2021/01/11 12:58:57;;;;;;;94.85;69.47;;;102.60;1920.00;;;;;;5076428;28;20028;-80
2021/01/11 13:01:25;;;;;;;67.07;47.70;;;102.50;1945.60;;;;;;5095631;28;20058;-80
2021/01/11 13:03:53;;;;;;;60.95;42.30;;;102.60;1945.60;;;;;;5077591;28;20024;-83
2021/01/11 13:06:20;;;;;;;62.28;47.17;;;102.70;1945.60;;;;;;5095215;28;20028;-83
2021/01/11 13:08:46;;;;;;;59.55;44.17;;;102.70;1945.60;;;;;;5077732;28;20024;-82
2021/01/11 13:11:16;;;;;;;69.03;49.70;;;102.70;1945.60;;;;;;5076990;28;20124;-81
2021/01/11 13:13:46;;;;;;;56.47;41.70;;;102.60;1945.60;;;;;;5077269;28;20031;-83
2021/01/11 13:16:23;;;;;;;67.32;46.60;;;102.60;1945.60;;;;;;5077065;28;20036;-81
2021/01/11 13:18:49;;;;;;;71.68;60.80;;;102.60;1971.20;;;;;;5077428;28;20051;-80
2021/01/11 13:21:14;;;;;;;63.53;45.38;;;102.50;1971.20;;;;;;5076901;28;20097;-80
2021/01/11 13:23:40;;;;;;;97.65;70.30;;;102.70;1971.20;;;;;;5077185;28;20122;-81
2021/01/11 13:26:06;;;;;;;86.28;61.88;;;102.60;1945.60;;;;;;5076791;28;20034;-82
2021/01/11 13:28:31;;;;;;;61.53;43.13;;;102.70;1945.60;;;;;;5076935;28;20020;-80
2021/01/11 13:30:57;;;;;;;66.95;46.20;;;102.70;1945.60;;;;;;5076543;28;20055;-80
2021/01/11 13:33:24;;;;;;;65.88;45.50;;;102.60;1945.60;;;;;;5076212;28;20028;-80